Terminal Aerodrome Forecast
Issued by NWS

Home | Current Version | Previous Version | Text Only | Print | Product List | Glossary On
Versions: 1 2 3 4 5 6 7 8 9 10 11 12 13 14 15 16 17 18 19 20 21 22 23
000
FTUS44 KBMX 191739 RRA
TAFEET
TAF
KEET 191739Z 1918/2012 18006KT P6SM BKN100
     FM191930 17008KT 3SM RA BR OVC010
     FM192100 17008KT 5SM SHRA VCTS OVC010CB
     FM200300 18007KT 4SM SHRA VCTS OVC004CB=

USA.gov is the U.S. government's official web portal to all federal, state and local government web resources and services.